To NAV CANADA Home Page Login to a new session Search on AWWS site Feedback and Comments Disclaimer Vers la page française équivalente Tips FAQ What's new on the site To the Forecasts and Observations / NOTAM section To "File a Flight Plan" website Publications and other links Update of the User's profile FIC Telephone Numbers My Weather Data Folder Route Weather Data Regional Weather Data Local Weather Data To the Forecasts and Observations / NOTAM section
Request Generated 04/24/2014 at 03:15:10 UTC . Weather information available at that time is displayed.

METAR/TAF

ST. JOHN'S/ST. JOHN'S INTL/NL    

SPECI CYYT 240311Z 06017G28KT 15SM -SHSN FEW008 OVC017 M01/M02 A2972
RMK SF2SC6 SLP070=
METAR CYYT 240300Z 06021G28KT 15SM FEW011 BKN017 OVC060 M01/M02 A2972
RMK SF1SC5SC2 SLP070=
METAR CYYT 240200Z 07024G32KT 15SM FEW017 OVC067 M01/M03 A2971 RMK
SC2AC6 SLP068=
METAR CYYT 240100Z 07018G27KT 15SM FEW012 BKN072 OVC170 M01/M04 A2973
RMK SC2AC5AS1 SLP075=

TAF AMD CYYT 240150Z 2401/2424 07017G27KT P6SM SCT007 OVC150 TEMPO
2401/2403 3SM -FZRA -SN BR BKN007 OVC150
FM240300 07020G30KT 3/4SM -FZRA BR OVC003 TEMPO 2403/2409 3SM -SN
BR SCT003 OVC008
FM240900 06025G40KT 3/4SM -FZRA BR OVC005 TEMPO 2409/2414 3SM
-RASN BR OVC010
FM241400 06025G40KT 1SM -RA BR OVC003 TEMPO 2414/2417 4SM -RAPL
BR OVC007 PROB30 2414/2417 2SM -FZRA BR
FM241700 06025G40KT 1/2SM -RA -DZ FG VV002
FM242300 06025G35KT 1/8SM -DZ FG VV001
RMK NXT FCST BY 240600Z=
Your time UTC time
Weather data provided by Environment Canada and NAV CANADA